sensor_id;sensor_type;location;lat;lon;timestamp;P1;durP1;ratioP1;P2;durP2;ratioP2
35243;SDS011;37916;52.160;21.066;2022-08-19T00:00:50;17.30;;;13.80;;
35243;SDS011;37916;52.160;21.066;2022-08-19T00:10:50;18.30;;;13.83;;
35243;SDS011;37916;52.160;21.066;2022-08-19T00:20:52;18.67;;;13.57;;
35243;SDS011;37916;52.160;21.066;2022-08-19T00:30:53;16.65;;;12.55;;
35243;SDS011;37916;52.160;21.066;2022-08-19T00:40:54;18.10;;;13.48;;
35243;SDS011;37916;52.160;21.066;2022-08-19T00:50:55;17.08;;;14.35;;
35243;SDS011;37916;52.160;21.066;2022-08-19T01:00:56;17.05;;;14.63;;
35243;SDS011;37916;52.160;21.066;2022-08-19T01:10:58;15.85;;;13.32;;
35243;SDS011;37916;52.160;21.066;2022-08-19T01:21:01;19.13;;;13.33;;
35243;SDS011;37916;52.160;21.066;2022-08-19T01:31:05;19.48;;;14.68;;
35243;SDS011;37916;52.160;21.066;2022-08-19T01:41:07;15.43;;;13.13;;
35243;SDS011;37916;52.160;21.066;2022-08-19T01:51:08;18.15;;;14.95;;
35243;SDS011;37916;52.160;21.066;2022-08-19T02:01:10;15.65;;;13.90;;
35243;SDS011;37916;52.160;21.066;2022-08-19T02:11:17;16.92;;;13.38;;
35243;SDS011;37916;52.160;21.066;2022-08-19T02:21:23;17.13;;;13.63;;
35243;SDS011;37916;52.160;21.066;2022-08-19T02:31:24;15.38;;;13.05;;
35243;SDS011;37916;52.160;21.066;2022-08-19T02:41:26;17.25;;;13.15;;
35243;SDS011;37916;52.160;21.066;2022-08-19T03:01:31;15.73;;;12.20;;
35243;SDS011;37916;52.160;21.066;2022-08-19T03:11:32;15.00;;;12.93;;
35243;SDS011;37916;52.160;21.066;2022-08-19T03:21:33;18.08;;;14.80;;
35243;SDS011;37916;52.160;21.066;2022-08-19T03:31:34;15.85;;;13.27;;
35243;SDS011;37916;52.160;21.066;2022-08-19T03:41:40;16.70;;;14.18;;
35243;SDS011;37916;52.160;21.066;2022-08-19T03:51:42;16.55;;;13.98;;
35243;SDS011;37916;52.160;21.066;2022-08-19T04:01:43;17.13;;;15.25;;
35243;SDS011;37916;52.160;21.066;2022-08-19T04:11:45;16.07;;;12.87;;
35243;SDS011;37916;52.160;21.066;2022-08-19T04:21:49;19.83;;;14.50;;
35243;SDS011;37916;52.160;21.066;2022-08-19T04:31:53;26.73;;;13.27;;
35243;SDS011;37916;52.160;21.066;2022-08-19T04:41:55;21.45;;;13.50;;
35243;SDS011;37916;52.160;21.066;2022-08-19T04:52:14;21.90;;;13.98;;
35243;SDS011;37916;52.160;21.066;2022-08-19T05:02:15;16.23;;;12.30;;
35243;SDS011;37916;52.160;21.066;2022-08-19T05:12:15;16.02;;;12.25;;
35243;SDS011;37916;52.160;21.066;2022-08-19T05:22:17;16.73;;;11.52;;
35243;SDS011;37916;52.160;21.066;2022-08-19T05:32:32;13.65;;;10.25;;
35243;SDS011;37916;52.160;21.066;2022-08-19T05:42:33;15.70;;;11.38;;
35243;SDS011;37916;52.160;21.066;2022-08-19T05:52:35;12.27;;;10.43;;
35243;SDS011;37916;52.160;21.066;2022-08-19T06:02:38;14.13;;;10.95;;
35243;SDS011;37916;52.160;21.066;2022-08-19T06:12:38;15.98;;;11.68;;
35243;SDS011;37916;52.160;21.066;2022-08-19T06:22:40;16.63;;;11.50;;
35243;SDS011;37916;52.160;21.066;2022-08-19T06:32:42;16.90;;;12.60;;
35243;SDS011;37916;52.160;21.066;2022-08-19T06:42:42;19.13;;;12.82;;
35243;SDS011;37916;52.160;21.066;2022-08-19T06:52:43;16.75;;;12.40;;
35243;SDS011;37916;52.160;21.066;2022-08-19T07:02:44;15.15;;;10.95;;
35243;SDS011;37916;52.160;21.066;2022-08-19T07:12:44;12.00;;;9.80;;
35243;SDS011;37916;52.160;21.066;2022-08-19T07:22:45;11.20;;;8.70;;
35243;SDS011;37916;52.160;21.066;2022-08-19T07:32:46;11.23;;;8.32;;
35243;SDS011;37916;52.160;21.066;2022-08-19T07:42:46;12.68;;;8.43;;
35243;SDS011;37916;52.160;21.066;2022-08-19T07:52:47;10.27;;;7.93;;
35243;SDS011;37916;52.160;21.066;2022-08-19T08:02:49;11.68;;;7.78;;
35243;SDS011;37916;52.160;21.066;2022-08-19T08:12:50;11.38;;;8.23;;
35243;SDS011;37916;52.160;21.066;2022-08-19T08:22:51;12.70;;;8.65;;
35243;SDS011;37916;52.160;21.066;2022-08-19T08:33:10;12.88;;;8.90;;
35243;SDS011;37916;52.160;21.066;2022-08-19T08:53:35;12.93;;;8.75;;
35243;SDS011;37916;52.160;21.066;2022-08-19T09:03:36;9.38;;;7.00;;
35243;SDS011;37916;52.160;21.066;2022-08-19T09:24:01;11.32;;;6.75;;
35243;SDS011;37916;52.160;21.066;2022-08-19T09:34:03;9.52;;;7.38;;
35243;SDS011;37916;52.160;21.066;2022-08-19T09:44:05;11.60;;;6.70;;
35243;SDS011;37916;52.160;21.066;2022-08-19T09:54:06;8.80;;;7.20;;
35243;SDS011;37916;52.160;21.066;2022-08-19T10:04:07;13.13;;;7.15;;
35243;SDS011;37916;52.160;21.066;2022-08-19T10:14:10;9.63;;;6.80;;
35243;SDS011;37916;52.160;21.066;2022-08-19T10:24:12;11.70;;;7.22;;
35243;SDS011;37916;52.160;21.066;2022-08-19T10:34:12;10.40;;;7.87;;
35243;SDS011;37916;52.160;21.066;2022-08-19T10:44:13;10.23;;;6.68;;
35243;SDS011;37916;52.160;21.066;2022-08-19T10:54:14;12.88;;;7.10;;
35243;SDS011;37916;52.160;21.066;2022-08-19T11:04:14;13.30;;;7.03;;
35243;SDS011;37916;52.160;21.066;2022-08-19T11:14:17;11.82;;;7.78;;
35243;SDS011;37916;52.160;21.066;2022-08-19T11:24:21;11.27;;;7.35;;
35243;SDS011;37916;52.160;21.066;2022-08-19T11:34:25;13.65;;;6.85;;
35243;SDS011;37916;52.160;21.066;2022-08-19T11:44:28;11.35;;;7.15;;
35243;SDS011;37916;52.160;21.066;2022-08-19T11:54:30;11.93;;;7.03;;
35243;SDS011;37916;52.160;21.066;2022-08-19T12:14:31;9.52;;;6.70;;
35243;SDS011;37916;52.160;21.066;2022-08-19T12:34:34;10.00;;;6.40;;
35243;SDS011;37916;52.160;21.066;2022-08-19T12:44:37;13.77;;;7.22;;
35243;SDS011;37916;52.160;21.066;2022-08-19T12:54:39;7.85;;;6.10;;
35243;SDS011;37916;52.160;21.066;2022-08-19T13:04:39;9.80;;;5.77;;
35243;SDS011;37916;52.160;21.066;2022-08-19T13:14:41;10.60;;;5.88;;
35243;SDS011;37916;52.160;21.066;2022-08-19T13:24:41;12.52;;;5.63;;
35243;SDS011;37916;52.160;21.066;2022-08-19T13:44:43;8.25;;;5.07;;
35243;SDS011;37916;52.160;21.066;2022-08-19T13:54:46;7.35;;;5.03;;
35243;SDS011;37916;52.160;21.066;2022-08-19T14:04:46;7.33;;;5.07;;
35243;SDS011;37916;52.160;21.066;2022-08-19T14:14:47;8.77;;;4.80;;
35243;SDS011;37916;52.160;21.066;2022-08-19T14:24:47;7.88;;;4.93;;
35243;SDS011;37916;52.160;21.066;2022-08-19T14:34:50;10.73;;;4.85;;
35243;SDS011;37916;52.160;21.066;2022-08-19T14:44:51;6.50;;;4.50;;
35243;SDS011;37916;52.160;21.066;2022-08-19T14:54:52;10.57;;;4.55;;
35243;SDS011;37916;52.160;21.066;2022-08-19T15:04:52;8.70;;;4.75;;
35243;SDS011;37916;52.160;21.066;2022-08-19T15:14:55;8.38;;;4.60;;
35243;SDS011;37916;52.160;21.066;2022-08-19T15:24:56;8.02;;;4.68;;
35243;SDS011;37916;52.160;21.066;2022-08-19T15:34:56;9.13;;;4.27;;
35243;SDS011;37916;52.160;21.066;2022-08-19T15:54:58;8.93;;;5.18;;
35243;SDS011;37916;52.160;21.066;2022-08-19T16:04:59;9.85;;;4.47;;
35243;SDS011;37916;52.160;21.066;2022-08-19T16:15:18;10.10;;;4.90;;
35243;SDS011;37916;52.160;21.066;2022-08-19T16:25:19;8.32;;;5.00;;
35243;SDS011;37916;52.160;21.066;2022-08-19T16:35:27;10.63;;;4.93;;
35243;SDS011;37916;52.160;21.066;2022-08-19T16:45:28;8.95;;;4.43;;
35243;SDS011;37916;52.160;21.066;2022-08-19T16:55:29;6.37;;;3.80;;
35243;SDS011;37916;52.160;21.066;2022-08-19T17:05:30;7.60;;;4.85;;
35243;SDS011;37916;52.160;21.066;2022-08-19T17:15:31;6.65;;;4.60;;
35243;SDS011;37916;52.160;21.066;2022-08-19T17:25:32;8.85;;;5.20;;
35243;SDS011;37916;52.160;21.066;2022-08-19T17:45:35;8.30;;;4.80;;
35243;SDS011;37916;52.160;21.066;2022-08-19T17:55:37;11.07;;;5.28;;
35243;SDS011;37916;52.160;21.066;2022-08-19T18:05:40;5.75;;;4.25;;
35243;SDS011;37916;52.160;21.066;2022-08-19T18:15:42;8.15;;;4.63;;
35243;SDS011;37916;52.160;21.066;2022-08-19T18:25:42;10.70;;;5.03;;
35243;SDS011;37916;52.160;21.066;2022-08-19T18:35:44;7.03;;;4.80;;
35243;SDS011;37916;52.160;21.066;2022-08-19T18:45:46;9.45;;;4.85;;
35243;SDS011;37916;52.160;21.066;2022-08-19T18:56:06;9.38;;;4.80;;
35243;SDS011;37916;52.160;21.066;2022-08-19T19:06:10;9.98;;;4.88;;
35243;SDS011;37916;52.160;21.066;2022-08-19T19:16:17;10.02;;;4.97;;
35243;SDS011;37916;52.160;21.066;2022-08-19T19:26:18;9.52;;;4.93;;
35243;SDS011;37916;52.160;21.066;2022-08-19T19:36:21;8.98;;;5.30;;
35243;SDS011;37916;52.160;21.066;2022-08-19T19:46:22;8.53;;;4.60;;
35243;SDS011;37916;52.160;21.066;2022-08-19T19:56:22;8.25;;;4.45;;
35243;SDS011;37916;52.160;21.066;2022-08-19T20:06:23;10.85;;;5.20;;
35243;SDS011;37916;52.160;21.066;2022-08-19T20:16:23;6.73;;;5.03;;
35243;SDS011;37916;52.160;21.066;2022-08-19T20:26:24;8.73;;;4.90;;
35243;SDS011;37916;52.160;21.066;2022-08-19T20:36:25;8.53;;;5.10;;
35243;SDS011;37916;52.160;21.066;2022-08-19T20:46:27;11.02;;;5.65;;
35243;SDS011;37916;52.160;21.066;2022-08-19T20:56:28;14.88;;;5.32;;
35243;SDS011;37916;52.160;21.066;2022-08-19T21:06:29;8.83;;;5.03;;
35243;SDS011;37916;52.160;21.066;2022-08-19T21:16:30;9.73;;;4.95;;
35243;SDS011;37916;52.160;21.066;2022-08-19T21:26:33;11.60;;;4.93;;
35243;SDS011;37916;52.160;21.066;2022-08-19T21:36:34;9.82;;;5.20;;
35243;SDS011;37916;52.160;21.066;2022-08-19T21:46:35;10.60;;;5.22;;
35243;SDS011;37916;52.160;21.066;2022-08-19T21:56:36;11.73;;;5.85;;
35243;SDS011;37916;52.160;21.066;2022-08-19T22:06:38;7.75;;;4.82;;
35243;SDS011;37916;52.160;21.066;2022-08-19T22:16:39;10.18;;;4.95;;
35243;SDS011;37916;52.160;21.066;2022-08-19T22:26:40;8.20;;;5.07;;
35243;SDS011;37916;52.160;21.066;2022-08-19T22:36:41;6.20;;;4.80;;
35243;SDS011;37916;52.160;21.066;2022-08-19T22:46:41;8.80;;;5.27;;
35243;SDS011;37916;52.160;21.066;2022-08-19T22:56:42;11.30;;;5.57;;
35243;SDS011;37916;52.160;21.066;2022-08-19T23:06:43;7.40;;;5.15;;
35243;SDS011;37916;52.160;21.066;2022-08-19T23:16:44;11.00;;;4.97;;
35243;SDS011;37916;52.160;21.066;2022-08-19T23:26:45;11.20;;;4.90;;
35243;SDS011;37916;52.160;21.066;2022-08-19T23:37:04;10.43;;;4.80;;
35243;SDS011;37916;52.160;21.066;2022-08-19T23:47:05;11.70;;;5.05;;
35243;SDS011;37916;52.160;21.066;2022-08-19T23:57:06;7.72;;;5.28;;
